createdAt,value
2022-12-12T00:00:25.746Z,48.66
2022-12-12T00:01:26.646Z,48.66
2022-12-12T00:02:26.733Z,49.31
2022-12-12T00:03:25.844Z,49.31
2022-12-12T00:04:27.404Z,49.63
2022-12-12T00:05:25.829Z,49.95
2022-12-12T00:06:25.724Z,49.31
2022-12-12T00:07:27.703Z,49.47
2022-12-12T00:08:27.064Z,49.95
2022-12-12T00:09:25.666Z,49.95
2022-12-12T00:10:26.741Z,50.92
2022-12-12T00:11:26.446Z,49.79
2022-12-12T00:12:25.646Z,50.11
2022-12-12T00:13:27.405Z,49.79
2022-12-12T00:14:27.021Z,49.95
2022-12-12T00:15:26.482Z,50.27
2022-12-12T00:16:25.790Z,49.95
2022-12-12T00:17:26.442Z,49.95
2022-12-12T00:18:26.482Z,49.79
2022-12-12T00:19:26.603Z,49.31
2022-12-12T00:20:26.242Z,49.79
2022-12-12T00:21:26.284Z,49.79
2022-12-12T00:22:25.686Z,50.11
2022-12-12T00:23:27.183Z,49.79
2022-12-12T00:24:26.224Z,49.79
2022-12-12T00:25:26.486Z,49.63
2022-12-12T00:26:26.283Z,49.79
2022-12-12T00:27:26.422Z,49.95
2022-12-12T00:28:28.045Z,49.79
2022-12-12T00:29:26.543Z,49.95
2022-12-12T00:30:25.442Z,49.63
2022-12-12T00:31:26.496Z,49.47
2022-12-12T00:32:26.142Z,49.31
2022-12-12T00:33:26.322Z,49.47
2022-12-12T00:34:26.522Z,49.63
2022-12-12T00:35:26.461Z,49.47
2022-12-12T00:36:25.381Z,49.31
2022-12-12T00:37:27.123Z,49.47
2022-12-12T00:38:27.042Z,48.82
2022-12-12T00:39:25.403Z,49.31
2022-12-12T00:40:26.263Z,49.15
2022-12-12T00:41:25.424Z,51.56
2022-12-12T00:42:26.264Z,49.47
2022-12-12T00:43:26.246Z,51.72
2022-12-12T00:44:26.421Z,49.47
2022-12-12T00:45:26.744Z,49.31
2022-12-12T00:46:26.643Z,49.31
2022-12-12T00:47:26.243Z,49.15
2022-12-12T00:48:26.243Z,49.79
2022-12-12T00:49:26.087Z,49.31
2022-12-12T00:50:26.683Z,49.47
2022-12-12T00:51:26.123Z,48.82
2022-12-12T00:52:26.042Z,48.66
2022-12-12T00:53:26.164Z,49.47
2022-12-12T00:54:25.984Z,49.31
2022-12-12T00:55:26.763Z,49.31
2022-12-12T00:56:25.922Z,49.79
2022-12-12T00:57:26.143Z,49.47
2022-12-12T00:58:25.323Z,49.31
2022-12-12T00:59:26.765Z,48.98
2022-12-12T01:00:26.183Z,49.31
2022-12-12T01:01:26.072Z,48.82
2022-12-12T01:02:28.336Z,49.15
2022-12-12T01:03:26.002Z,49.31
2022-12-12T01:04:25.122Z,49.15
2022-12-12T01:05:26.186Z,49.31
2022-12-12T01:06:25.885Z,48.98
2022-12-12T01:07:26.002Z,49.15
2022-12-12T01:08:26.124Z,48.66
2022-12-12T01:09:25.042Z,49.31
2022-12-12T01:10:25.883Z,48.66
2022-12-12T01:11:25.965Z,49.47
2022-12-12T01:12:25.902Z,48.98
2022-12-12T01:13:26.002Z,49.47
2022-12-12T01:14:25.962Z,49.31
2022-12-12T01:15:25.662Z,50.92
2022-12-12T01:16:26.623Z,49.79
2022-12-12T01:17:26.502Z,50.76
2022-12-12T01:18:26.463Z,49.79
2022-12-12T01:19:25.663Z,49.95
2022-12-12T01:20:25.823Z,49.47
2022-12-12T01:21:25.523Z,50.11
2022-12-12T01:22:26.763Z,50.11
2022-12-12T01:23:26.564Z,50.27
2022-12-12T01:24:25.502Z,50.11
2022-12-12T01:25:25.782Z,50.43
2022-12-12T01:26:25.604Z,50.92
2022-12-12T01:27:25.763Z,50.92
2022-12-12T01:28:24.984Z,50.92
2022-12-12T01:29:25.742Z,52.05
2022-12-12T01:30:25.647Z,52.37
2022-12-12T01:31:25.877Z,50.43
2022-12-12T01:32:25.763Z,50.60
2022-12-12T01:33:25.841Z,50.92
2022-12-12T01:34:25.680Z,50.60
2022-12-12T01:35:26.044Z,49.79
2022-12-12T01:36:26.783Z,50.43
2022-12-12T01:37:25.701Z,50.76
2022-12-12T01:38:25.602Z,50.60
2022-12-12T01:39:25.662Z,50.60
2022-12-12T01:40:25.722Z,50.43
2022-12-12T01:41:25.644Z,50.27
2022-12-12T01:42:25.643Z,50.27
2022-12-12T01:43:25.741Z,50.92
2022-12-12T01:44:25.562Z,50.92
2022-12-12T01:45:25.483Z,50.27
2022-12-12T01:46:25.664Z,50.92
2022-12-12T01:47:26.742Z,51.24
2022-12-12T01:48:25.605Z,50.92
2022-12-12T01:49:25.445Z,50.76
2022-12-12T01:50:24.643Z,50.60
2022-12-12T01:51:25.521Z,51.08
2022-12-12T01:52:25.583Z,51.24
2022-12-12T01:53:25.483Z,50.92
2022-12-12T01:54:26.344Z,51.08
2022-12-12T01:55:25.486Z,50.76
2022-12-12T01:56:25.281Z,50.76
2022-12-12T01:57:26.463Z,50.92
2022-12-12T01:58:25.444Z,50.92
2022-12-12T01:59:25.562Z,51.08
2022-12-12T02:00:25.359Z,51.08
2022-12-12T02:01:25.503Z,50.92
2022-12-12T02:02:25.291Z,51.24
2022-12-12T02:03:25.564Z,50.43
2022-12-12T02:04:25.461Z,51.56
2022-12-12T02:05:25.443Z,51.24
2022-12-12T02:06:24.483Z,50.43
2022-12-12T02:07:25.384Z,51.24
2022-12-12T02:08:25.323Z,51.24
2022-12-12T02:09:26.927Z,50.92
2022-12-12T02:10:25.527Z,50.92
2022-12-12T02:11:25.224Z,50.60
2022-12-12T02:12:24.442Z,50.92
2022-12-12T02:13:25.206Z,51.08
2022-12-12T02:14:25.524Z,51.56
2022-12-12T02:15:25.264Z,51.40
2022-12-12T02:16:25.377Z,51.56
2022-12-12T02:17:25.863Z,51.24
2022-12-12T02:18:24.363Z,52.37
2022-12-12T02:19:25.201Z,51.24
2022-12-12T02:20:25.363Z,50.60
2022-12-12T02:21:25.303Z,51.24
2022-12-12T02:22:25.281Z,51.40
2022-12-12T02:23:24.342Z,51.56
2022-12-12T02:24:26.230Z,50.76
2022-12-12T02:25:25.086Z,51.08
2022-12-12T02:26:25.242Z,51.24
2022-12-12T02:27:25.262Z,51.56
2022-12-12T02:28:24.983Z,51.56
2022-12-12T02:29:25.123Z,51.56
2022-12-12T02:30:24.944Z,50.76
2022-12-12T02:31:25.250Z,51.56
2022-12-12T02:32:24.264Z,51.56
2022-12-12T02:33:25.183Z,50.92
2022-12-12T02:34:25.223Z,51.56
2022-12-12T02:35:25.003Z,50.76
2022-12-12T02:36:25.723Z,51.40
2022-12-12T02:37:25.124Z,51.40
2022-12-12T02:38:25.724Z,51.56
2022-12-12T02:39:24.242Z,50.76
2022-12-12T02:40:24.962Z,50.76
2022-12-12T02:41:24.165Z,51.24
2022-12-12T02:42:24.943Z,50.92
2022-12-12T02:43:24.123Z,51.24
2022-12-12T02:44:25.629Z,50.92
2022-12-12T02:45:24.823Z,51.08
2022-12-12T02:46:25.035Z,51.24
2022-12-12T02:47:24.066Z,51.40
2022-12-12T02:48:25.864Z,51.72
2022-12-12T02:49:25.365Z,51.24
2022-12-12T02:50:25.004Z,51.56
2022-12-12T02:51:24.043Z,51.08
2022-12-12T02:52:25.003Z,50.76
2022-12-12T02:53:24.002Z,50.76
2022-12-12T02:54:26.074Z,50.76
2022-12-12T02:55:26.002Z,50.60
2022-12-12T02:56:24.004Z,50.92
2022-12-12T02:57:24.782Z,51.40
2022-12-12T02:58:23.965Z,50.92
2022-12-12T02:59:24.824Z,50.27
2022-12-12T03:00:23.964Z,50.92
2022-12-12T03:01:24.902Z,51.24
2022-12-12T03:02:24.710Z,50.92
2022-12-12T03:03:23.903Z,51.24
2022-12-12T03:04:24.683Z,50.92
2022-12-12T03:05:24.843Z,50.76
2022-12-12T03:06:23.962Z,50.60
2022-12-12T03:07:25.642Z,50.76
2022-12-12T03:08:24.711Z,50.76
2022-12-12T03:09:23.862Z,50.11
2022-12-12T03:10:24.864Z,51.24
2022-12-12T03:11:23.843Z,50.27
2022-12-12T03:12:25.542Z,50.76
2022-12-12T03:13:25.263Z,49.79
2022-12-12T03:14:24.704Z,50.76
2022-12-12T03:15:23.802Z,50.11
2022-12-12T03:16:25.617Z,51.24
2022-12-12T03:17:25.343Z,50.43
2022-12-12T03:18:23.785Z,50.60
2022-12-12T03:19:23.764Z,50.92
2022-12-12T03:20:25.142Z,50.43
2022-12-12T03:21:23.724Z,50.60
2022-12-12T03:22:24.801Z,51.56
2022-12-12T03:23:23.763Z,51.08
2022-12-12T03:24:25.384Z,50.43
2022-12-12T03:25:24.901Z,51.88
2022-12-12T03:26:24.643Z,51.56
2022-12-12T03:27:23.783Z,50.76
2022-12-12T03:28:25.744Z,49.79
2022-12-12T03:29:25.084Z,50.76
2022-12-12T03:30:24.561Z,51.40
2022-12-12T03:31:23.691Z,51.40
2022-12-12T03:32:25.624Z,50.27
2022-12-12T03:33:24.502Z,50.76
2022-12-12T03:34:25.326Z,50.92
2022-12-12T03:35:24.523Z,51.56
2022-12-12T03:36:23.582Z,50.60
2022-12-12T03:37:25.443Z,50.92
2022-12-12T03:38:25.203Z,50.76
2022-12-12T03:39:24.402Z,50.60
2022-12-12T03:40:23.623Z,50.60
2022-12-12T03:41:24.482Z,50.92
2022-12-12T03:42:24.324Z,51.08
2022-12-12T03:43:25.428Z,50.27
2022-12-12T03:44:25.063Z,50.76
2022-12-12T03:45:24.512Z,50.60
2022-12-12T03:46:23.444Z,64.61
2022-12-12T03:47:25.063Z,51.08
2022-12-12T03:48:24.482Z,50.92
2022-12-12T03:49:23.424Z,50.11
2022-12-12T03:50:25.022Z,61.07
2022-12-12T03:51:24.204Z,51.72
2022-12-12T03:52:23.403Z,50.11
2022-12-12T03:53:24.845Z,51.08
2022-12-12T03:54:23.506Z,51.40
2022-12-12T03:55:24.970Z,51.24
2022-12-12T03:56:24.601Z,53.98
2022-12-12T03:57:23.383Z,51.40
2022-12-12T03:58:24.323Z,50.76
2022-12-12T03:59:27.356Z,50.76
2022-12-12T04:00:24.386Z,50.27
2022-12-12T04:01:24.252Z,49.79
2022-12-12T04:02:24.304Z,53.17
2022-12-12T04:03:23.324Z,50.92
2022-12-12T04:04:24.005Z,50.43
2022-12-12T04:05:24.264Z,50.92
2022-12-12T04:06:24.165Z,50.43
2022-12-12T04:07:23.261Z,50.92
2022-12-12T04:08:25.062Z,50.60
2022-12-12T04:09:24.622Z,50.43
2022-12-12T04:10:25.823Z,50.43
2022-12-12T04:11:24.201Z,50.43
2022-12-12T04:12:23.224Z,50.27
2022-12-12T04:13:28.839Z,49.95
2022-12-12T04:14:23.205Z,51.08
2022-12-12T04:15:23.323Z,52.53
2022-12-12T04:16:24.076Z,50.43
2022-12-12T04:17:23.163Z,50.92
2022-12-12T04:18:24.582Z,50.60
2022-12-12T04:19:23.142Z,49.15
2022-12-12T04:20:24.657Z,50.60
2022-12-12T04:21:23.243Z,52.85
2022-12-12T04:22:27.400Z,50.92
2022-12-12T04:23:23.963Z,50.60
2022-12-12T04:24:24.044Z,50.76
2022-12-12T04:25:23.845Z,50.60
2022-12-12T04:26:25.008Z,50.92
2022-12-12T04:27:23.844Z,50.43
2022-12-12T04:28:24.984Z,50.43
2022-12-12T04:29:23.922Z,50.43
2022-12-12T04:30:23.025Z,66.87
2022-12-12T04:31:23.904Z,51.72
2022-12-12T04:32:24.844Z,58.01
2022-12-12T04:33:23.023Z,49.95
2022-12-12T04:34:23.682Z,49.47
2022-12-12T04:35:22.983Z,50.11
2022-12-12T04:36:23.723Z,50.11
2022-12-12T04:37:22.962Z,50.27
2022-12-12T04:38:23.846Z,50.11
2022-12-12T04:39:24.423Z,50.27
2022-12-12T04:40:22.941Z,50.27
2022-12-12T04:41:23.863Z,50.60
2022-12-12T04:42:23.765Z,50.60
2022-12-12T04:43:22.982Z,50.43
2022-12-12T04:44:24.984Z,50.60
2022-12-12T04:45:24.662Z,49.79
2022-12-12T04:46:23.745Z,49.79
2022-12-12T04:47:23.845Z,50.11
2022-12-12T04:48:25.523Z,52.85
2022-12-12T04:49:22.823Z,51.56
2022-12-12T04:50:23.702Z,50.92
2022-12-12T04:51:22.803Z,50.92
2022-12-12T04:52:23.750Z,50.11
2022-12-12T04:53:24.341Z,49.95
2022-12-12T04:54:24.362Z,52.53
2022-12-12T04:55:24.005Z,51.08
2022-12-12T04:56:22.783Z,50.27
2022-12-12T04:57:23.563Z,50.60
2022-12-12T04:58:23.682Z,50.60
2022-12-12T04:59:22.842Z,50.43
2022-12-12T05:00:24.183Z,51.72
2022-12-12T05:01:23.697Z,55.43
2022-12-12T05:02:23.729Z,53.01
2022-12-12T05:03:23.543Z,50.60
2022-12-12T05:04:22.682Z,50.27
2022-12-12T05:05:24.382Z,50.92
2022-12-12T05:06:24.142Z,50.11
2022-12-12T05:07:22.642Z,50.43
2022-12-12T05:08:22.756Z,50.60
2022-12-12T05:09:23.603Z,50.92
2022-12-12T05:10:23.362Z,51.08
2022-12-12T05:11:22.681Z,50.60
2022-12-12T05:12:23.662Z,50.27
2022-12-12T05:13:23.561Z,50.60
2022-12-12T05:14:22.621Z,51.40
2022-12-12T05:15:23.542Z,50.60
2022-12-12T05:16:22.743Z,50.43
2022-12-12T05:17:24.182Z,58.01
2022-12-12T05:18:23.484Z,51.24
2022-12-12T05:19:22.542Z,50.60
2022-12-12T05:20:24.345Z,57.69
2022-12-12T05:21:23.963Z,54.14
2022-12-12T05:22:22.663Z,53.66
2022-12-12T05:23:22.501Z,56.72
2022-12-12T05:24:23.324Z,50.11
2022-12-12T05:25:22.481Z,50.76
2022-12-12T05:26:23.381Z,50.92
2022-12-12T05:27:22.484Z,51.88
2022-12-12T05:28:25.184Z,50.60
2022-12-12T05:29:23.264Z,50.27
2022-12-12T05:30:23.399Z,50.43
2022-12-12T05:31:22.543Z,50.43
2022-12-12T05:32:24.325Z,50.92
2022-12-12T05:33:24.103Z,58.97
2022-12-12T05:34:23.401Z,50.43
2022-12-12T05:35:23.261Z,52.21
2022-12-12T05:36:22.409Z,50.27
2022-12-12T05:37:23.102Z,51.08
2022-12-12T05:38:23.863Z,50.76
2022-12-12T05:39:22.341Z,52.53
2022-12-12T05:40:22.462Z,52.69
2022-12-12T05:41:23.884Z,52.53
2022-12-12T05:42:23.823Z,52.05
2022-12-12T05:43:22.285Z,69.45
2022-12-12T05:44:23.882Z,69.93
2022-12-12T05:45:23.203Z,70.58
2022-12-12T05:46:24.308Z,66.06
2022-12-12T05:47:22.265Z,64.94
2022-12-12T05:48:24.724Z,65.10
2022-12-12T05:49:24.146Z,64.78
2022-12-12T05:50:23.402Z,65.58
2022-12-12T05:51:22.382Z,67.51
2022-12-12T05:52:23.183Z,67.84
2022-12-12T05:53:22.182Z,67.51
2022-12-12T05:54:22.962Z,68.64
2022-12-12T05:55:22.882Z,68.00
2022-12-12T05:56:22.183Z,66.87
2022-12-12T05:57:24.106Z,67.84
2022-12-12T05:58:23.022Z,67.84
2022-12-12T05:59:22.162Z,81.37
2022-12-12T06:00:24.004Z,73.80
2022-12-12T06:01:23.588Z,66.39
2022-12-12T06:02:22.185Z,67.68
2022-12-12T06:03:22.222Z,65.42
2022-12-12T06:04:23.080Z,67.03
2022-12-12T06:05:22.923Z,55.27
2022-12-12T06:06:23.541Z,84.43
2022-12-12T06:07:23.033Z,78.31
2022-12-12T06:08:25.188Z,67.03
2022-12-12T06:09:23.021Z,66.71
2022-12-12T06:10:21.982Z,78.31
2022-12-12T06:11:22.903Z,67.35
2022-12-12T06:12:22.762Z,67.51
2022-12-12T06:13:22.022Z,56.88
2022-12-12T06:14:22.843Z,67.35
2022-12-12T06:15:22.882Z,66.71
2022-12-12T06:16:23.381Z,67.03
2022-12-12T06:17:22.882Z,68.16
2022-12-12T06:18:22.743Z,78.79
2022-12-12T06:19:21.925Z,61.71
2022-12-12T06:20:23.162Z,66.39
2022-12-12T06:21:21.922Z,70.25
2022-12-12T06:22:23.464Z,68.00
2022-12-12T06:23:21.884Z,65.58
2022-12-12T06:24:22.781Z,66.87
2022-12-12T06:25:22.623Z,65.74
2022-12-12T06:26:22.001Z,67.35
2022-12-12T06:27:22.582Z,63.49
2022-12-12T06:28:22.743Z,70.42
2022-12-12T06:29:22.586Z,64.45
2022-12-12T06:30:22.766Z,67.03
2022-12-12T06:31:21.911Z,60.75
2022-12-12T06:32:23.789Z,57.69
2022-12-12T06:33:23.344Z,57.04
2022-12-12T06:34:22.722Z,64.61
2022-12-12T06:35:21.763Z,65.90
2022-12-12T06:36:22.662Z,65.10
2022-12-12T06:37:21.783Z,55.59
2022-12-12T06:38:22.662Z,57.20
2022-12-12T06:39:22.544Z,66.71
2022-12-12T06:40:21.763Z,65.10
2022-12-12T06:41:21.744Z,65.26
2022-12-12T06:42:22.462Z,68.00
2022-12-12T06:43:22.584Z,57.20
2022-12-12T06:44:23.341Z,55.27
2022-12-12T06:45:22.642Z,56.24
2022-12-12T06:46:22.444Z,56.40
2022-12-12T06:47:22.606Z,65.74
2022-12-12T06:48:22.382Z,66.39
2022-12-12T06:49:22.621Z,67.19
2022-12-12T06:50:23.830Z,69.29
2022-12-12T06:51:22.623Z,68.16
2022-12-12T06:52:21.704Z,59.46
2022-12-12T06:53:21.585Z,71.87
2022-12-12T06:54:23.382Z,57.04
2022-12-12T06:55:23.182Z,58.49
2022-12-12T06:56:22.542Z,62.84
2022-12-12T06:57:21.564Z,65.26
2022-12-12T06:58:22.742Z,68.80
2022-12-12T06:59:21.502Z,65.58
2022-12-12T07:00:23.065Z,57.36
2022-12-12T07:01:23.095Z,67.03
2022-12-12T07:02:27.749Z,62.84
2022-12-12T07:03:22.623Z,69.93
2022-12-12T07:04:21.502Z,66.55
2022-12-12T07:05:22.561Z,65.26
2022-12-12T07:06:22.425Z,59.78
2022-12-12T07:07:21.461Z,65.10
2022-12-12T07:08:23.477Z,65.10
2022-12-12T07:09:23.180Z,66.55
2022-12-12T07:10:21.645Z,56.56
2022-12-12T07:11:21.423Z,56.56
2022-12-12T07:12:22.120Z,54.46
2022-12-12T07:13:21.402Z,53.33
2022-12-12T07:14:21.408Z,54.79
2022-12-12T07:15:23.582Z,57.36
2022-12-12T07:16:22.619Z,67.51
2022-12-12T07:17:21.342Z,72.67
2022-12-12T07:18:22.103Z,64.94
2022-12-12T07:19:22.824Z,59.62
2022-12-12T07:20:22.144Z,55.59
2022-12-12T07:21:22.245Z,55.59
2022-12-12T07:22:21.323Z,54.95
2022-12-12T07:23:23.101Z,50.76
2022-12-12T07:24:21.281Z,66.55
2022-12-12T07:25:22.204Z,61.55
2022-12-12T07:26:22.102Z,67.84
2022-12-12T07:27:22.943Z,65.42
2022-12-12T07:28:22.304Z,66.55
2022-12-12T07:29:21.942Z,54.79
2022-12-12T07:30:22.083Z,56.24
2022-12-12T07:31:22.054Z,57.04
2022-12-12T07:32:22.102Z,68.16
2022-12-12T07:33:28.372Z,67.84
2022-12-12T07:34:22.122Z,71.06
2022-12-12T07:35:21.962Z,67.51
2022-12-12T07:36:21.141Z,56.56
2022-12-12T07:37:22.083Z,65.90
2022-12-12T07:38:22.041Z,58.65
2022-12-12T07:39:23.584Z,57.04
2022-12-12T07:40:22.063Z,57.36
2022-12-12T07:41:21.086Z,63.97
2022-12-12T07:42:22.706Z,60.10
2022-12-12T07:43:26.479Z,57.85
2022-12-12T07:44:21.666Z,68.64
2022-12-12T07:45:22.851Z,65.26
2022-12-12T07:46:21.824Z,58.81
2022-12-12T07:47:22.022Z,57.36
2022-12-12T07:48:21.066Z,77.83
2022-12-12T07:49:21.864Z,72.19
2022-12-12T07:50:21.823Z,58.01
2022-12-12T07:51:21.086Z,56.88
2022-12-12T07:52:22.661Z,56.07
2022-12-12T07:53:22.402Z,57.69
2022-12-12T07:54:20.961Z,57.69
2022-12-12T07:55:21.863Z,58.33
2022-12-12T07:56:20.982Z,75.57
2022-12-12T07:57:22.924Z,58.49
2022-12-12T07:58:21.785Z,56.24
2022-12-12T07:59:20.944Z,60.42
2022-12-12T08:00:22.782Z,56.56
2022-12-12T08:01:22.662Z,56.40
2022-12-12T08:02:20.888Z,58.97
2022-12-12T08:03:23.741Z,51.72
2022-12-12T08:04:21.949Z,51.72
2022-12-12T08:05:23.403Z,51.08
2022-12-12T08:06:21.786Z,51.56
2022-12-12T08:07:21.656Z,55.59
2022-12-12T08:08:20.905Z,55.75
2022-12-12T08:09:22.943Z,55.43
2022-12-12T08:10:22.303Z,56.24
2022-12-12T08:11:21.694Z,55.91
2022-12-12T08:12:21.761Z,55.59
2022-12-12T08:13:20.763Z,55.59
2022-12-12T08:14:22.622Z,58.33
2022-12-12T08:15:22.220Z,62.84
2022-12-12T08:16:20.872Z,56.24
2022-12-12T08:17:22.424Z,55.91
2022-12-12T08:18:21.443Z,55.43
2022-12-12T08:19:20.724Z,69.13
2022-12-12T08:20:22.503Z,57.20
2022-12-12T08:21:25.792Z,56.72
2022-12-12T08:22:20.681Z,57.85
2022-12-12T08:23:20.703Z,57.36
2022-12-12T08:24:21.464Z,56.24
2022-12-12T08:25:20.681Z,56.07
2022-12-12T08:26:21.462Z,58.49
2022-12-12T08:27:21.721Z,56.24
2022-12-12T08:28:20.801Z,53.01
2022-12-12T08:29:22.007Z,54.79
2022-12-12T08:30:21.521Z,56.88
2022-12-12T08:31:21.350Z,56.24
2022-12-12T08:32:20.582Z,53.66
2022-12-12T08:33:20.566Z,53.82
2022-12-12T08:34:22.402Z,57.85
2022-12-12T08:35:20.622Z,62.52
2022-12-12T08:36:20.881Z,56.24
2022-12-12T08:37:22.142Z,57.20
2022-12-12T08:38:22.103Z,55.43
2022-12-12T08:39:21.402Z,55.11
2022-12-12T08:40:23.324Z,58.97
2022-12-12T08:41:21.422Z,51.88
2022-12-12T08:42:21.462Z,51.08
2022-12-12T08:43:20.486Z,54.30
2022-12-12T08:44:21.402Z,53.98
2022-12-12T08:45:20.462Z,51.24
2022-12-12T08:46:22.529Z,51.56
2022-12-12T08:47:22.162Z,54.95
2022-12-12T08:48:20.562Z,54.62
2022-12-12T08:49:20.385Z,54.79
2022-12-12T08:50:22.404Z,52.37
2022-12-12T08:51:22.122Z,51.56
2022-12-12T08:52:20.363Z,58.97
2022-12-12T08:53:20.383Z,69.77
2022-12-12T08:54:22.443Z,59.62
2022-12-12T08:55:21.983Z,63.33
2022-12-12T08:56:20.343Z,70.58
2022-12-12T08:57:25.756Z,71.06
2022-12-12T08:58:20.321Z,66.87
2022-12-12T08:59:20.321Z,71.22
2022-12-12T09:00:22.382Z,67.68
2022-12-12T09:01:22.616Z,68.64
2022-12-12T09:02:20.364Z,69.77
2022-12-12T09:03:23.569Z,68.48
2022-12-12T09:04:20.244Z,67.19
2022-12-12T09:05:20.342Z,71.06
2022-12-12T09:06:21.985Z,68.48
2022-12-12T09:07:21.403Z,68.00
2022-12-12T09:08:20.303Z,67.68
2022-12-12T09:09:20.223Z,65.58
2022-12-12T09:10:21.183Z,67.68
2022-12-12T09:11:20.262Z,65.58
2022-12-12T09:12:21.105Z,83.47
2022-12-12T09:13:20.162Z,66.71
2022-12-12T09:14:20.283Z,70.74
2022-12-12T09:15:20.143Z,81.05
2022-12-12T09:16:21.241Z,73.96
2022-12-12T09:17:21.803Z,68.00
2022-12-12T09:18:20.147Z,61.23
2022-12-12T09:19:20.965Z,57.04
2022-12-12T09:20:21.105Z,58.33
2022-12-12T09:21:20.114Z,57.04
2022-12-12T09:22:21.062Z,55.43
2022-12-12T09:23:22.862Z,57.85
2022-12-12T09:24:21.122Z,55.75
2022-12-12T09:25:20.061Z,58.33
2022-12-12T09:26:21.541Z,53.82
2022-12-12T09:27:21.130Z,49.47
2022-12-12T09:28:21.863Z,68.16
2022-12-12T09:29:21.144Z,68.16
2022-12-12T09:30:21.347Z,66.39
2022-12-12T09:31:20.939Z,55.43
2022-12-12T09:32:24.706Z,48.98
2022-12-12T09:33:21.025Z,59.78
2022-12-12T09:34:20.942Z,54.30
2022-12-12T09:35:20.122Z,51.40
2022-12-12T09:36:19.921Z,50.92
2022-12-12T09:37:19.923Z,56.40
2022-12-12T09:38:21.872Z,52.05
2022-12-12T09:39:21.542Z,50.27
2022-12-12T09:40:21.345Z,50.92
2022-12-12T09:41:22.021Z,60.91
2022-12-12T09:42:22.424Z,72.67
2022-12-12T09:43:24.724Z,55.43
2022-12-12T09:44:21.345Z,54.30
2022-12-12T09:45:20.961Z,55.75
2022-12-12T09:46:20.862Z,55.43
2022-12-12T09:47:20.862Z,56.88
2022-12-12T09:48:21.745Z,56.24
2022-12-12T09:49:20.883Z,55.91
2022-12-12T09:50:21.273Z,57.04
2022-12-12T09:51:20.805Z,67.68
2022-12-12T09:52:20.542Z,56.88
2022-12-12T09:53:21.442Z,57.52
2022-12-12T09:54:19.803Z,66.23
2022-12-12T09:55:21.662Z,57.20
2022-12-12T09:56:21.265Z,55.75
2022-12-12T09:57:20.623Z,55.59
2022-12-12T09:58:21.381Z,56.40
2022-12-12T09:59:20.742Z,55.59
2022-12-12T10:00:20.284Z,58.33
2022-12-12T10:01:20.610Z,56.88
2022-12-12T10:02:20.813Z,54.79
2022-12-12T10:03:21.442Z,56.56
2022-12-12T10:04:21.182Z,58.65
2022-12-12T10:05:20.225Z,57.20
2022-12-12T10:06:37.481Z,54.46
2022-12-12T10:07:21.224Z,59.46
2022-12-12T10:08:21.649Z,57.20
2022-12-12T10:09:19.582Z,64.45
2022-12-12T10:10:20.686Z,62.84
2022-12-12T10:11:19.584Z,63.49
2022-12-12T10:12:19.543Z,63.00
2022-12-12T10:13:21.725Z,62.04
2022-12-12T10:14:21.083Z,60.42
2022-12-12T10:15:20.902Z,67.03
2022-12-12T10:16:19.559Z,62.36
2022-12-12T10:17:20.683Z,69.29
2022-12-12T10:18:21.343Z,64.45
2022-12-12T10:19:21.062Z,65.58
2022-12-12T10:20:20.523Z,66.39
2022-12-12T10:21:20.342Z,60.42
2022-12-12T10:22:24.282Z,71.70
2022-12-12T10:23:21.163Z,70.42
2022-12-12T10:24:20.923Z,63.97
2022-12-12T10:25:21.223Z,60.26
2022-12-12T10:26:20.244Z,78.31
2022-12-12T10:27:20.104Z,77.18
2022-12-12T10:28:19.383Z,77.99
2022-12-12T10:29:19.368Z,72.35
2022-12-12T10:30:21.024Z,84.27
2022-12-12T10:31:20.533Z,95.55
2022-12-12T10:32:20.963Z,88.30
2022-12-12T10:33:19.303Z,77.02
2022-12-12T10:34:20.823Z,67.68
2022-12-12T10:35:26.475Z,75.57
2022-12-12T10:36:20.643Z,68.16
2022-12-12T10:37:21.383Z,68.00
2022-12-12T10:38:21.142Z,70.42
2022-12-12T10:39:20.861Z,67.03
2022-12-12T10:40:20.311Z,68.32
2022-12-12T10:41:19.203Z,66.71
2022-12-12T10:42:20.204Z,67.51
2022-12-12T10:43:21.061Z,72.83
2022-12-12T10:44:20.388Z,68.00
2022-12-12T10:45:19.266Z,66.55
2022-12-12T10:46:19.306Z,68.32
2022-12-12T10:47:19.503Z,68.16
2022-12-12T10:48:21.067Z,68.80
2022-12-12T10:49:21.387Z,68.32
2022-12-12T10:50:19.278Z,73.96
2022-12-12T10:51:19.239Z,65.90
2022-12-12T10:52:20.642Z,66.39
2022-12-12T10:53:20.201Z,67.03
2022-12-12T10:54:20.225Z,68.48
2022-12-12T10:55:19.284Z,66.71
2022-12-12T10:56:20.964Z,65.90
2022-12-12T10:57:20.665Z,67.35
2022-12-12T10:58:19.862Z,67.19
2022-12-12T10:59:20.162Z,73.96
2022-12-12T11:00:20.604Z,67.68
2022-12-12T11:01:32.896Z,72.51
2022-12-12T11:02:20.885Z,71.38
2022-12-12T11:03:19.774Z,70.25
2022-12-12T11:04:20.343Z,80.73
2022-12-12T11:05:20.623Z,63.33
2022-12-12T11:06:19.023Z,63.65
2022-12-12T11:07:19.042Z,64.13
2022-12-12T11:08:19.908Z,67.19
2022-12-12T11:09:20.604Z,66.55
2022-12-12T11:10:20.007Z,66.87
2022-12-12T11:11:19.848Z,71.22
2022-12-12T11:12:19.921Z,68.16
2022-12-12T11:13:19.763Z,67.84
2022-12-12T11:14:19.864Z,67.51
2022-12-12T11:15:18.923Z,68.64
2022-12-12T11:16:19.903Z,68.64
2022-12-12T11:17:21.623Z,70.25
2022-12-12T11:18:19.703Z,80.73
2022-12-12T11:19:20.462Z,72.67
2022-12-12T11:20:19.784Z,71.38
2022-12-12T11:21:19.702Z,70.42
2022-12-12T11:22:19.624Z,70.42
2022-12-12T11:23:20.703Z,67.35
2022-12-12T11:24:19.842Z,65.10
2022-12-12T11:25:19.683Z,65.26
2022-12-12T11:26:19.205Z,64.45
2022-12-12T11:27:19.981Z,64.94
2022-12-12T11:28:20.202Z,65.10
2022-12-12T11:29:18.863Z,78.79
2022-12-12T11:30:19.505Z,63.16
2022-12-12T11:31:19.660Z,64.61
2022-12-12T11:32:19.542Z,64.45
2022-12-12T11:33:19.623Z,66.23
2022-12-12T11:34:18.846Z,71.22
2022-12-12T11:35:20.822Z,77.83
2022-12-12T11:36:19.762Z,77.18
2022-12-12T11:37:19.443Z,75.89
2022-12-12T11:38:20.182Z,69.13
2022-12-12T11:39:20.340Z,67.68
2022-12-12T11:40:19.891Z,68.16
2022-12-12T11:41:19.141Z,69.13
2022-12-12T11:42:19.493Z,76.22
2022-12-12T11:43:19.371Z,77.34
2022-12-12T11:44:20.291Z,75.09
2022-12-12T11:45:18.396Z,76.86
2022-12-12T11:46:19.645Z,78.63
2022-12-12T11:47:18.412Z,70.58
2022-12-12T11:48:19.159Z,77.67
2022-12-12T11:49:19.935Z,66.71
2022-12-12T11:50:18.287Z,75.25
2022-12-12T11:51:18.349Z,58.65
2022-12-12T11:52:18.351Z,56.88
2022-12-12T11:53:20.312Z,57.69
2022-12-12T11:54:19.762Z,68.80
2022-12-12T11:55:19.420Z,69.61
2022-12-12T11:56:18.222Z,70.09
2022-12-12T11:57:18.809Z,65.90
2022-12-12T11:58:19.780Z,65.58
2022-12-12T11:59:19.870Z,64.29
2022-12-12T12:00:19.733Z,64.78
2022-12-12T12:01:19.960Z,76.05
2022-12-12T12:02:19.222Z,75.57
2022-12-12T12:03:18.448Z,76.05
2022-12-12T12:04:19.052Z,66.23
2022-12-12T12:05:18.900Z,66.23
2022-12-12T12:06:18.090Z,64.13
2022-12-12T12:07:19.221Z,73.15
2022-12-12T12:08:18.929Z,69.45
2022-12-12T12:09:18.741Z,71.54
2022-12-12T12:10:24.107Z,73.15
2022-12-12T12:11:18.781Z,77.99
2022-12-12T12:12:18.850Z,74.44
2022-12-12T12:13:19.041Z,82.02
2022-12-12T12:14:18.561Z,76.70
2022-12-12T12:15:18.731Z,76.70
2022-12-12T12:16:18.919Z,76.05
2022-12-12T12:17:19.909Z,91.20
2022-12-12T12:18:20.541Z,76.86
2022-12-12T12:19:18.741Z,70.25
2022-12-12T12:20:18.861Z,75.57
2022-12-12T12:21:18.600Z,76.22
2022-12-12T12:22:18.791Z,72.67
2022-12-12T12:23:19.751Z,73.15
2022-12-12T12:24:19.602Z,68.64
2022-12-12T12:25:17.953Z,63.33
2022-12-12T12:26:19.541Z,63.33
2022-12-12T12:27:18.480Z,75.09
2022-12-12T12:28:18.612Z,63.81
2022-12-12T12:29:17.900Z,82.18
2022-12-12T12:30:19.593Z,75.73
2022-12-12T12:31:18.500Z,98.45
2022-12-12T12:32:18.021Z,76.70
2022-12-12T12:33:18.760Z,78.47
2022-12-12T12:34:18.660Z,77.18
2022-12-12T12:35:17.831Z,80.89
2022-12-12T12:36:21.443Z,78.96
2022-12-12T12:37:18.751Z,67.51
2022-12-12T12:38:18.490Z,77.99
2022-12-12T12:39:17.769Z,77.18
2022-12-12T12:40:19.151Z,82.82
2022-12-12T12:41:18.063Z,72.19
2022-12-12T12:42:17.760Z,60.75
2022-12-12T12:43:18.741Z,61.55
2022-12-12T12:44:18.500Z,77.02
2022-12-12T12:45:17.721Z,74.60
2022-12-12T12:46:18.607Z,73.32
2022-12-12T12:47:17.728Z,73.32
2022-12-12T12:48:17.720Z,77.18
2022-12-12T12:49:17.672Z,73.32
2022-12-12T12:50:18.133Z,73.64
2022-12-12T12:51:17.661Z,74.12
2022-12-12T12:52:19.151Z,72.99